Rowlett, Texas
Current Conditions -  °F | °C
As of 1:15 AM on Thursday 23 Oct 2014 (Local Time) from KF46 Reporting Station
Clear Clear  
Wind Chill: 65°   Ceiling: Unl
Heat Index: 65°   Visibility: 10mi
Dew Point: 53°   Wind: 7mph
Humidity: 64%   Direction: 120°ESE
Pressure: 30.1"   Gusts: NA
Location:  32.9°N, 96.57°W
Report Text: KF46 230615Z AUTO 12006KT 10SM CLR 19/12 A3010 RMK AO2 T01850115
Loading
Personal Weather Stations






























Interactive Weather Map New forecast layout! Learn more

10-Day Weather Forecast

Advertisements
Track Severe Weather on mobile